Time;durP1;ratioP1;P1;durP2;ratioP2;P2;SDS_P1;SDS_P2;PMS_P1;PMS_P2;Temp;Humidity;BMP_temperature;BMP_pressure;BME280_temperature;BME280_humidity;BME280_pressure;Samples;Min_cycle;Max_cycle;Signal;HPM_P1;HPM_P2
2022/12/04 00:01:52;;;;;;;76.10;34.85;;;1.70;99.90;;;;;;5094977;28;20465;-64
2022/12/04 00:04:17;;;;;;;72.03;35.35;;;1.80;99.90;;;;;;5109036;27;20477;-64
2022/12/04 00:06:43;;;;;;;81.05;36.47;;;1.80;99.90;;;;;;5071882;28;20045;-64
2022/12/04 00:09:09;;;;;;;74.05;34.30;;;1.80;99.90;;;;;;5091886;28;20035;-67
2022/12/04 00:11:34;;;;;;;77.00;35.08;;;1.70;99.90;;;;;;5084329;28;20481;-64
2022/12/04 00:14:01;;;;;;;72.15;35.20;;;1.70;99.90;;;;;;5095036;28;20032;-64
2022/12/04 00:16:28;;;;;;;76.97;35.35;;;1.70;99.90;;;;;;5097219;28;20377;-63
2022/12/04 00:18:54;;;;;;;79.25;37.95;;;1.70;99.90;;;;;;5094646;28;20472;-64
2022/12/04 00:21:21;;;;;;;79.03;37.17;;;1.70;99.90;;;;;;5092538;27;20034;-64
2022/12/04 00:23:47;;;;;;;79.20;36.80;;;1.70;99.90;;;;;;5092071;28;20039;-64
2022/12/04 00:26:15;;;;;;;74.50;34.97;;;1.70;99.90;;;;;;5091870;28;20016;-63
2022/12/04 00:28:42;;;;;;;80.93;38.88;;;1.70;99.90;;;;;;5091809;28;20519;-64
2022/12/04 00:31:11;;;;;;;75.85;37.60;;;1.70;99.90;;;;;;5094852;28;20028;-64
2022/12/04 00:33:37;;;;;;;77.47;36.78;;;1.70;99.90;;;;;;5091835;28;20043;-64
2022/12/04 00:36:05;;;;;;;68.68;33.55;;;1.70;99.90;;;;;;5092436;28;20039;-64
2022/12/04 00:38:31;;;;;;;76.03;36.40;;;1.70;99.90;;;;;;5093123;27;20046;-64
2022/12/04 00:40:56;;;;;;;65.35;32.55;;;1.70;99.90;;;;;;5095717;28;20032;-64
2022/12/04 00:43:23;;;;;;;67.00;32.10;;;1.70;99.90;;;;;;5096376;28;20028;-64
2022/12/04 00:45:49;;;;;;;77.63;36.42;;;1.70;99.90;;;;;;5091608;28;20028;-64
2022/12/04 00:48:14;;;;;;;82.15;37.83;;;1.70;99.90;;;;;;5091376;28;20089;-64
2022/12/04 00:50:40;;;;;;;75.82;35.58;;;1.70;99.90;;;;;;5095956;28;20482;-64
2022/12/04 00:53:06;;;;;;;69.72;34.65;;;1.70;99.90;;;;;;5092413;28;20092;-64
2022/12/04 00:55:31;;;;;;;82.55;38.85;;;1.70;99.90;;;;;;5092070;28;20023;-64
2022/12/04 00:57:57;;;;;;;82.85;38.10;;;1.70;99.90;;;;;;5093609;28;20556;-64
2022/12/04 01:00:22;;;;;;;81.57;38.38;;;1.70;99.90;;;;;;5097248;28;20475;-64
2022/12/04 01:02:48;;;;;;;81.55;38.30;;;1.70;99.90;;;;;;5092276;28;20441;-63
2022/12/04 01:05:14;;;;;;;75.10;37.60;;;1.70;99.90;;;;;;5095301;28;20113;-66
2022/12/04 01:07:39;;;;;;;72.78;36.75;;;1.70;99.90;;;;;;5093570;28;20023;-64
2022/12/04 01:10:06;;;;;;;75.70;36.15;;;1.70;99.90;;;;;;5091172;28;20024;-64
2022/12/04 01:12:32;;;;;;;77.63;37.15;;;1.70;99.90;;;;;;5096379;28;20031;-64
2022/12/04 01:14:58;;;;;;;82.93;38.72;;;1.70;99.90;;;;;;5076821;28;20020;-64
2022/12/04 01:17:24;;;;;;;78.93;38.65;;;1.60;99.90;;;;;;5096560;28;20465;-64
2022/12/04 01:19:50;;;;;;;76.80;36.58;;;1.70;99.90;;;;;;5096127;28;20082;-64
2022/12/04 01:22:16;;;;;;;83.32;38.55;;;1.70;99.90;;;;;;5092880;28;20020;-64
2022/12/04 01:24:41;;;;;;;77.97;38.63;;;1.70;99.90;;;;;;5090825;28;20051;-64
2022/12/04 01:27:07;;;;;;;75.45;36.30;;;1.70;99.90;;;;;;5093436;28;20028;-65
2022/12/04 01:29:33;;;;;;;82.88;37.88;;;1.60;99.90;;;;;;5083036;28;20172;-65
2022/12/04 01:31:58;;;;;;;78.95;38.10;;;1.70;99.90;;;;;;5090890;28;20031;-64
2022/12/04 01:34:24;;;;;;;80.72;37.58;;;1.70;99.90;;;;;;5082381;28;20055;-64
2022/12/04 01:36:50;;;;;;;78.07;38.42;;;1.70;99.90;;;;;;5092474;27;20024;-64
2022/12/04 01:39:16;;;;;;;78.80;38.92;;;1.60;99.90;;;;;;5093210;28;20031;-64
2022/12/04 01:41:41;;;;;;;83.53;38.53;;;1.60;99.90;;;;;;5093345;28;20389;-64
2022/12/04 01:44:18;;;;;;;79.55;38.97;;;1.60;99.90;;;;;;5090290;28;20145;-64
2022/12/04 01:46:49;;;;;;;74.60;38.15;;;1.60;99.90;;;;;;5097896;28;20051;-64
2022/12/04 01:49:24;;;;;;;85.70;40.22;;;1.70;99.90;;;;;;5075253;28;20477;-64
2022/12/04 01:52:13;;;;;;;80.63;39.03;;;1.60;99.90;;;;;;5090156;28;20039;-64
2022/12/04 01:54:43;;;;;;;84.47;39.33;;;1.70;99.90;;;;;;5082764;27;20050;-64
2022/12/04 01:57:16;;;;;;;80.78;36.92;;;1.60;99.90;;;;;;5098640;28;20020;-64
2022/12/04 01:59:49;;;;;;;75.13;36.15;;;1.70;99.90;;;;;;5090060;28;20440;-64
2022/12/04 02:02:21;;;;;;;81.22;39.55;;;1.60;99.90;;;;;;5084394;28;20023;-64
2022/12/04 02:04:47;;;;;;;75.47;37.50;;;1.60;99.90;;;;;;5084358;28;20047;-64
2022/12/04 02:07:12;;;;;;;76.93;37.70;;;1.60;99.90;;;;;;5095529;28;20016;-64
2022/12/04 02:09:39;;;;;;;76.50;36.50;;;1.70;99.90;;;;;;5092671;28;20354;-64
2022/12/04 02:12:27;;;;;;;83.18;38.97;;;1.60;99.90;;;;;;5092718;28;20476;-64
2022/12/04 02:15:27;;;;;;;84.20;39.85;;;1.70;99.90;;;;;;5107368;27;20496;-64
2022/12/04 02:17:57;;;;;;;;;;;1.70;99.90;;;;;;5096569;28;20419;-64
2022/12/04 02:20:23;;;;;;;80.30;37.20;;;1.60;99.90;;;;;;5089657;28;19912;-64
2022/12/04 02:23:36;;;;;;;84.00;38.20;;;1.60;99.90;;;;;;5092372;28;20019;-64
2022/12/04 02:26:18;;;;;;;77.30;39.47;;;1.70;99.90;;;;;;5089667;28;20039;-64
2022/12/04 02:29:06;;;;;;;84.20;41.00;;;1.60;99.90;;;;;;5089676;28;20362;-64
2022/12/04 02:31:41;;;;;;;82.88;39.08;;;1.60;99.90;;;;;;5092073;28;20024;-64
2022/12/04 02:34:28;;;;;;;79.18;38.35;;;1.60;99.90;;;;;;5079035;28;20178;-64
2022/12/04 02:37:07;;;;;;;83.97;40.20;;;1.60;99.90;;;;;;5091441;27;20020;-64
2022/12/04 02:39:43;;;;;;;77.80;37.67;;;1.60;99.90;;;;;;5075710;28;20024;-64
2022/12/04 02:42:14;;;;;;;85.60;39.50;;;1.60;99.90;;;;;;5095372;28;20130;-64
2022/12/04 02:45:00;;;;;;;85.97;40.33;;;1.50;99.90;;;;;;5073873;28;20069;-65
2022/12/04 02:47:28;;;;;;;81.85;39.33;;;1.60;99.90;;;;;;5094673;28;20052;-64
2022/12/04 02:50:00;;;;;;;83.85;38.22;;;1.60;99.90;;;;;;5089851;28;20039;-64
2022/12/04 02:52:35;;;;;;;82.25;38.40;;;1.60;99.90;;;;;;5096417;28;20042;-64
2022/12/04 02:55:13;;;;;;;81.45;39.55;;;1.70;99.90;;;;;;5099686;28;20076;-64
2022/12/04 02:57:43;;;;;;;80.68;40.38;;;1.60;99.90;;;;;;5096096;28;20024;-64
2022/12/04 03:00:10;;;;;;;84.60;41.75;;;1.60;99.90;;;;;;5089234;28;20028;-64
2022/12/04 03:02:50;;;;;;;88.13;39.88;;;1.60;99.90;;;;;;5092451;28;20039;-65
2022/12/04 03:05:17;;;;;;;;;;;1.60;99.90;;;;;;5077445;28;20441;-64
2022/12/04 03:07:50;;;;;;;76.53;38.28;;;1.60;99.90;;;;;;5088886;28;19908;-64
2022/12/04 03:10:28;;;;;;;82.22;39.15;;;1.50;99.90;;;;;;5091758;28;20020;-64
2022/12/04 03:13:01;;;;;;;83.22;37.90;;;1.60;99.90;;;;;;5091118;28;20555;-64
2022/12/04 03:15:36;;;;;;;81.43;37.70;;;1.60;99.90;;;;;;5088791;28;20012;-64
2022/12/04 03:18:13;;;;;;;82.43;40.95;;;1.60;99.90;;;;;;5091777;28;20032;-64
2022/12/04 03:20:41;;;;;;;81.43;39.00;;;1.60;99.90;;;;;;5094470;27;20020;-64
2022/12/04 03:23:12;;;;;;;80.40;39.83;;;1.60;99.90;;;;;;5088562;28;20031;-64
2022/12/04 03:25:49;;;;;;;79.93;38.67;;;1.60;99.90;;;;;;5092958;28;20024;-64
2022/12/04 03:28:36;;;;;;;81.80;39.10;;;1.70;99.90;;;;;;5076633;28;20594;-64
2022/12/04 03:31:06;;;;;;;74.20;35.20;;;1.60;99.90;;;;;;5088770;28;20471;-64
2022/12/04 03:33:45;;;;;;;80.75;38.40;;;1.70;99.90;;;;;;5096871;28;20692;-64
2022/12/04 03:36:20;;;;;;;83.10;40.30;;;1.60;99.90;;;;;;5094345;28;20040;-64
2022/12/04 03:39:10;;;;;;;81.88;39.00;;;1.70;99.90;;;;;;5088573;28;20024;-64
2022/12/04 03:42:01;;;;;;;87.05;41.67;;;1.70;99.90;;;;;;5084602;28;20017;-64
2022/12/04 03:44:39;;;;;;;78.88;38.55;;;1.70;99.90;;;;;;5094754;28;20031;-64
2022/12/04 03:47:12;;;;;;;83.25;39.60;;;1.70;99.90;;;;;;5099929;27;20081;-64
2022/12/04 03:49:37;;;;;;;79.10;38.55;;;1.70;99.90;;;;;;5096720;27;20027;-64
2022/12/04 03:52:15;;;;;;;82.25;37.92;;;1.60;99.90;;;;;;5097074;27;20123;-65
2022/12/04 03:55:05;;;;;;;74.43;39.40;;;1.70;99.90;;;;;;5124532;27;20031;-64
2022/12/04 03:57:33;;;;;;;;;;;1.70;99.90;;;;;;5099631;27;20035;-64
2022/12/04 04:00:09;;;;;;;82.47;36.28;;;1.70;99.90;;;;;;5099059;27;20420;-64
2022/12/04 04:03:02;;;;;;;76.97;37.45;;;1.60;99.90;;;;;;5099596;27;20477;-64
2022/12/04 04:05:30;;;;;;;81.07;38.35;;;1.70;99.90;;;;;;5094712;27;20061;-64
2022/12/04 04:08:24;;;;;;;84.80;38.90;;;1.70;99.90;;;;;;5098902;27;20073;-64
2022/12/04 04:10:46;;;;;;;84.55;40.38;;;1.70;99.90;;;;;;5097531;27;20016;-64
2022/12/04 04:24:42;;;;;;;86.20;39.45;;;1.70;99.90;;;;;;5101475;27;20100;-64
2022/12/04 04:27:08;;;;;;;75.63;37.17;;;1.70;99.90;;;;;;5098136;27;20050;-64
2022/12/04 04:29:34;;;;;;;85.53;40.95;;;1.70;99.90;;;;;;5096236;27;20366;-64
2022/12/04 04:32:43;;;;;;;75.20;37.03;;;1.70;99.90;;;;;;5094759;27;20081;-65
2022/12/04 04:35:24;;;;;;;77.20;36.67;;;1.70;99.90;;;;;;5100661;27;20406;-64
2022/12/04 04:37:56;;;;;;;76.10;36.83;;;1.70;99.90;;;;;;5097466;27;20061;-64
2022/12/04 04:40:33;;;;;;;79.70;37.75;;;1.70;99.90;;;;;;5096679;27;20024;-64
2022/12/04 04:43:12;;;;;;;81.32;39.08;;;1.70;99.90;;;;;;5100473;27;20055;-64
2022/12/04 04:45:47;;;;;;;83.50;40.17;;;1.70;99.90;;;;;;5094808;27;20055;-64
2022/12/04 04:48:44;;;;;;;80.60;38.35;;;1.70;99.90;;;;;;5094580;27;20438;-64
2022/12/04 04:51:11;;;;;;;86.63;40.72;;;1.70;99.90;;;;;;5093557;27;20063;-63
2022/12/04 04:53:42;;;;;;;85.63;40.03;;;1.60;99.90;;;;;;5097333;27;20122;-63
2022/12/04 04:56:08;;;;;;;83.10;38.80;;;1.60;99.90;;;;;;5094414;27;20043;-64
2022/12/04 04:58:34;;;;;;;76.68;37.85;;;1.70;99.90;;;;;;5094266;28;20027;-64
2022/12/04 05:01:06;;;;;;;81.40;39.58;;;1.60;99.90;;;;;;5093469;28;20024;-64
2022/12/04 05:03:32;;;;;;;81.57;40.10;;;1.60;99.90;;;;;;5099840;28;20020;-64
2022/12/04 05:05:57;;;;;;;80.22;40.47;;;1.60;99.90;;;;;;5095543;28;20545;-64
2022/12/04 05:08:23;;;;;;;77.55;37.17;;;1.70;99.90;;;;;;5095988;28;20119;-64
2022/12/04 05:10:49;;;;;;;75.50;38.20;;;1.70;99.90;;;;;;5097235;28;20090;-64
2022/12/04 05:13:16;;;;;;;76.10;37.80;;;1.70;99.90;;;;;;5094002;28;20135;-64
2022/12/04 05:15:42;;;;;;;78.50;39.15;;;1.70;99.90;;;;;;5095418;28;20027;-64
2022/12/04 05:18:08;;;;;;;79.93;38.17;;;1.70;99.90;;;;;;5094813;28;20032;-64
2022/12/04 05:20:36;;;;;;;72.82;36.95;;;1.70;99.90;;;;;;5075555;28;20111;-64
2022/12/04 05:23:02;;;;;;;75.30;36.42;;;1.70;99.90;;;;;;5093742;28;20028;-64
2022/12/04 05:25:27;;;;;;;79.57;38.25;;;1.70;99.90;;;;;;5096448;27;20028;-64
2022/12/04 05:27:53;;;;;;;76.93;37.72;;;1.70;99.90;;;;;;5091280;28;20028;-63
2022/12/04 05:30:18;;;;;;;73.38;37.15;;;1.70;99.90;;;;;;5093702;27;20032;-64
2022/12/04 05:32:44;;;;;;;69.97;37.45;;;1.80;99.90;;;;;;5072611;28;20043;-63
2022/12/04 05:35:09;;;;;;;76.45;38.63;;;1.80;99.90;;;;;;5075500;28;20392;-64
2022/12/04 05:37:36;;;;;;;71.30;37.78;;;1.80;99.90;;;;;;5096185;28;20038;-64
2022/12/04 05:40:04;;;;;;;75.53;37.25;;;1.80;99.90;;;;;;5093076;27;20110;-64
2022/12/04 05:42:30;;;;;;;76.55;36.05;;;1.80;99.90;;;;;;5097992;28;20027;-64
2022/12/04 05:44:55;;;;;;;74.95;36.50;;;1.80;99.90;;;;;;5090401;28;20085;-64
2022/12/04 05:47:21;;;;;;;72.15;35.85;;;1.80;99.90;;;;;;5076720;28;20020;-65
2022/12/04 05:49:46;;;;;;;81.20;38.08;;;1.80;99.90;;;;;;5092038;28;20443;-64
2022/12/04 05:52:12;;;;;;;71.57;35.55;;;1.80;99.90;;;;;;5094947;28;20119;-64
2022/12/04 05:54:37;;;;;;;72.30;38.47;;;1.80;99.90;;;;;;5090183;28;20028;-64
2022/12/04 05:57:03;;;;;;;73.88;36.20;;;1.70;99.90;;;;;;5093677;28;20043;-64
2022/12/04 05:59:29;;;;;;;72.18;36.80;;;1.80;99.90;;;;;;5092903;28;20469;-64
2022/12/04 06:01:54;;;;;;;73.05;36.22;;;1.80;99.90;;;;;;5096740;28;20036;-64
2022/12/04 06:04:20;;;;;;;72.07;36.83;;;1.70;99.90;;;;;;5096013;27;20015;-64
2022/12/04 06:06:45;;;;;;;68.90;36.17;;;1.70;99.90;;;;;;5091703;27;20088;-64
2022/12/04 06:09:11;;;;;;;69.50;34.00;;;1.70;99.90;;;;;;5093044;28;20023;-64
2022/12/04 06:11:38;;;;;;;64.80;32.88;;;1.80;99.90;;;;;;5095603;28;20373;-64
2022/12/04 06:14:06;;;;;;;66.68;33.38;;;1.80;99.90;;;;;;5093191;28;20035;-64
2022/12/04 06:16:37;;;;;;;66.82;34.35;;;1.80;99.90;;;;;;5089827;28;20107;-64
2022/12/04 06:19:09;;;;;;;66.63;35.58;;;1.80;99.90;;;;;;5095375;28;20024;-64
2022/12/04 06:21:36;;;;;;;69.57;33.60;;;1.80;99.90;;;;;;5089864;28;20030;-65
2022/12/04 06:24:03;;;;;;;68.72;34.60;;;1.80;99.90;;;;;;5095330;28;20032;-65
2022/12/04 06:26:28;;;;;;;75.35;35.92;;;1.80;99.90;;;;;;5093529;28;20020;-64
2022/12/04 06:28:56;;;;;;;70.57;34.15;;;1.80;99.90;;;;;;5089774;28;20081;-64
2022/12/04 06:31:22;;;;;;;66.70;33.30;;;1.80;99.90;;;;;;5089742;28;20107;-64
2022/12/04 06:33:48;;;;;;;70.53;35.90;;;1.80;99.90;;;;;;5092979;28;20109;-63
2022/12/04 06:36:16;;;;;;;68.93;35.78;;;1.80;99.90;;;;;;5089781;28;20020;-64
2022/12/04 06:38:42;;;;;;;78.70;37.95;;;1.80;99.90;;;;;;5096449;28;20062;-65
2022/12/04 06:41:10;;;;;;;68.78;35.42;;;1.80;99.90;;;;;;5089455;28;20442;-65
2022/12/04 06:43:36;;;;;;;72.28;35.13;;;1.80;99.90;;;;;;5073723;28;20019;-64
2022/12/04 06:46:09;;;;;;;68.45;33.88;;;1.80;99.90;;;;;;5095633;28;20389;-65
2022/12/04 06:48:35;;;;;;;62.80;31.90;;;1.80;99.90;;;;;;5090563;28;20072;-64
2022/12/04 06:51:03;;;;;;;74.93;36.22;;;1.80;99.90;;;;;;5094483;27;20074;-64
2022/12/04 06:53:29;;;;;;;66.60;33.70;;;1.80;99.90;;;;;;5074438;28;20534;-64
2022/12/04 06:56:00;;;;;;;70.93;34.33;;;1.80;99.90;;;;;;5094930;28;20052;-64
2022/12/04 06:58:26;;;;;;;64.65;32.97;;;1.80;99.90;;;;;;5095459;28;20050;-64
2022/12/04 07:00:53;;;;;;;63.50;33.17;;;1.80;99.90;;;;;;5105327;28;20015;-64
2022/12/04 07:03:19;;;;;;;66.55;32.95;;;1.80;99.90;;;;;;5103873;28;20051;-64
2022/12/04 07:05:45;;;;;;;66.22;31.90;;;1.80;99.90;;;;;;5090714;28;20020;-64
2022/12/04 07:08:11;;;;;;;65.68;33.17;;;1.80;99.90;;;;;;5074103;28;20024;-64
2022/12/04 07:10:37;;;;;;;64.25;31.88;;;1.80;99.90;;;;;;5105622;28;20036;-64
2022/12/04 07:13:04;;;;;;;71.22;35.42;;;1.80;99.90;;;;;;5100227;28;20034;-64
2022/12/04 07:15:31;;;;;;;69.70;33.45;;;1.90;99.90;;;;;;5092220;28;20381;-64
2022/12/04 07:17:57;;;;;;;64.70;33.33;;;1.80;99.90;;;;;;5092650;28;20035;-64
2022/12/04 07:20:23;;;;;;;66.07;34.53;;;1.80;99.90;;;;;;5104915;28;20024;-64
2022/12/04 07:22:48;;;;;;;65.07;32.67;;;1.80;99.90;;;;;;5092499;28;20024;-64
2022/12/04 07:25:14;;;;;;;61.72;32.92;;;1.80;99.90;;;;;;5105574;28;20057;-64
2022/12/04 07:27:39;;;;;;;68.55;33.10;;;1.80;99.90;;;;;;5092702;28;20106;-64
2022/12/04 07:30:05;;;;;;;70.53;35.72;;;1.90;99.90;;;;;;5092631;28;20035;-64
2022/12/04 07:32:31;;;;;;;65.38;34.78;;;1.90;99.90;;;;;;5100867;28;20034;-63
2022/12/04 07:34:56;;;;;;;67.97;33.90;;;1.90;99.90;;;;;;5078305;28;20016;-64
2022/12/04 07:37:22;;;;;;;65.38;32.88;;;1.80;99.90;;;;;;5092721;28;20500;-64
2022/12/04 07:39:50;;;;;;;69.35;34.95;;;1.80;99.90;;;;;;5093043;28;20038;-64
2022/12/04 07:42:16;;;;;;;68.85;32.33;;;1.80;99.90;;;;;;5101394;28;20023;-64
2022/12/04 07:44:41;;;;;;;69.05;35.03;;;1.80;99.90;;;;;;5108075;28;20028;-64
2022/12/04 07:47:07;;;;;;;66.43;33.35;;;1.80;99.90;;;;;;5109030;28;20034;-64
2022/12/04 07:49:33;;;;;;;67.93;34.28;;;1.80;99.90;;;;;;5106737;28;20027;-64
2022/12/04 07:51:58;;;;;;;64.97;31.80;;;1.90;99.90;;;;;;5106783;28;21334;-64
2022/12/04 07:54:23;;;;;;;68.05;32.13;;;1.80;99.90;;;;;;5086819;28;20020;-63
2022/12/04 07:56:49;;;;;;;64.80;32.13;;;1.80;99.90;;;;;;5105968;28;20072;-64
2022/12/04 07:59:15;;;;;;;56.85;29.70;;;1.90;99.90;;;;;;5108724;28;20020;-64
2022/12/04 08:01:40;;;;;;;63.45;31.02;;;1.90;99.90;;;;;;5111655;28;20453;-64
2022/12/04 08:04:06;;;;;;;58.17;30.42;;;1.90;99.90;;;;;;5100096;28;20099;-64
2022/12/04 08:06:33;;;;;;;59.15;29.58;;;1.90;99.90;;;;;;5069724;28;20354;-64
2022/12/04 08:08:58;;;;;;;58.67;28.88;;;1.90;99.90;;;;;;5096485;28;20028;-64
2022/12/04 08:11:26;;;;;;;64.63;30.75;;;2.00;99.90;;;;;;5108078;28;20477;-64
2022/12/04 08:14:01;;;;;;;61.58;31.02;;;2.00;99.90;;;;;;5082136;28;20125;-64
2022/12/04 08:16:29;;;;;;;64.30;30.42;;;2.00;99.90;;;;;;5100673;28;20021;-64
2022/12/04 08:18:55;;;;;;;68.28;32.92;;;2.00;99.90;;;;;;5091749;28;20032;-64
2022/12/04 08:21:23;;;;;;;64.40;31.42;;;2.00;99.90;;;;;;5098219;28;20023;-64
2022/12/04 08:23:51;;;;;;;56.60;30.10;;;2.00;99.90;;;;;;5100163;28;20505;-64
2022/12/04 08:26:19;;;;;;;57.70;29.55;;;2.00;99.90;;;;;;5091992;28;20028;-64
2022/12/04 08:28:44;;;;;;;61.33;28.67;;;2.00;99.90;;;;;;5108967;28;20028;-64
2022/12/04 08:31:16;;;;;;;54.63;27.23;;;2.00;99.90;;;;;;5114652;28;20495;-64
2022/12/04 08:33:42;;;;;;;57.75;29.95;;;2.10;99.90;;;;;;5115529;28;20120;-64
2022/12/04 08:36:10;;;;;;;61.20;30.60;;;2.10;99.90;;;;;;5115974;28;20027;-64
2022/12/04 08:38:36;;;;;;;56.08;28.33;;;2.00;99.90;;;;;;5095354;28;20028;-64
2022/12/04 08:41:04;;;;;;;55.28;26.52;;;2.10;99.90;;;;;;5082987;28;20024;-64
2022/12/04 08:43:29;;;;;;;52.42;27.40;;;2.10;99.90;;;;;;5094848;28;20016;-64
2022/12/04 08:46:03;;;;;;;56.15;26.75;;;2.20;99.90;;;;;;5097814;28;20028;-64
2022/12/04 08:48:29;;;;;;;52.08;27.42;;;2.10;99.90;;;;;;5095119;28;20032;-65
2022/12/04 08:50:55;;;;;;;53.85;27.92;;;2.20;99.90;;;;;;5099159;28;20092;-64
2022/12/04 08:53:22;;;;;;;55.83;26.67;;;2.10;99.90;;;;;;5099182;28;20031;-64
2022/12/04 08:55:47;;;;;;;52.53;27.75;;;2.20;99.90;;;;;;5094987;28;20052;-64
2022/12/04 08:58:13;;;;;;;51.90;26.77;;;2.20;99.90;;;;;;5098929;28;20059;-64
2022/12/04 09:00:39;;;;;;;48.20;24.77;;;2.20;99.90;;;;;;5106562;28;20030;-64
2022/12/04 09:03:04;;;;;;;49.83;25.33;;;2.20;99.90;;;;;;5113370;28;20376;-64
2022/12/04 09:05:30;;;;;;;47.13;24.27;;;2.30;99.90;;;;;;5111405;28;20023;-64
2022/12/04 09:07:56;;;;;;;49.90;25.17;;;2.30;99.90;;;;;;5111648;28;20012;-63
2022/12/04 09:10:22;;;;;;;49.25;24.83;;;2.30;99.90;;;;;;5111067;28;20060;-64
2022/12/04 09:12:47;;;;;;;49.95;25.30;;;2.30;99.90;;;;;;5112891;28;20062;-64
2022/12/04 09:15:13;;;;;;;46.67;23.65;;;2.30;99.90;;;;;;5110259;28;20027;-64
2022/12/04 09:17:39;;;;;;;45.97;24.58;;;2.30;99.90;;;;;;5121551;27;20051;-64
2022/12/04 09:20:07;;;;;;;45.92;24.90;;;2.30;99.90;;;;;;5110537;28;20536;-64
2022/12/04 09:22:37;;;;;;;46.28;23.88;;;2.30;99.90;;;;;;5108903;28;20406;-63
2022/12/04 09:25:04;;;;;;;47.03;24.83;;;2.30;99.90;;;;;;5109978;28;20019;-64
2022/12/04 09:27:29;;;;;;;49.28;24.55;;;2.30;99.90;;;;;;5109946;28;20020;-64
2022/12/04 09:29:55;;;;;;;52.38;24.75;;;2.30;99.90;;;;;;5112449;28;20456;-64
2022/12/04 09:32:21;;;;;;;47.15;26.23;;;2.30;99.90;;;;;;5112611;28;20122;-64
2022/12/04 09:34:47;;;;;;;50.25;26.20;;;2.30;99.90;;;;;;5109060;28;20104;-64
2022/12/04 09:37:12;;;;;;;49.90;26.55;;;2.30;99.90;;;;;;5108341;28;20492;-64
2022/12/04 09:39:38;;;;;;;52.50;27.17;;;2.30;99.90;;;;;;5109127;28;20074;-64
2022/12/04 09:42:06;;;;;;;48.65;25.60;;;2.20;99.90;;;;;;5080281;28;20024;-64
2022/12/04 09:44:38;;;;;;;53.25;27.00;;;2.20;99.90;;;;;;5108016;28;20038;-63
2022/12/04 09:47:25;;;;;;;51.25;27.20;;;2.20;99.90;;;;;;5103899;28;20051;-64
2022/12/04 09:49:56;;;;;;;49.00;25.50;;;2.20;99.90;;;;;;5097827;28;20026;-64
2022/12/04 09:52:55;;;;;;;51.42;25.02;;;2.20;99.90;;;;;;5093995;28;20023;-64
2022/12/04 09:55:39;;;;;;;48.83;24.92;;;2.20;99.90;;;;;;5099095;28;20032;-64
2022/12/04 09:58:10;;;;;;;44.20;23.08;;;2.20;99.90;;;;;;5094077;28;20586;-64
2022/12/04 10:00:39;;;;;;;43.90;22.40;;;2.20;99.90;;;;;;5097378;28;20024;-64
2022/12/04 10:03:11;;;;;;;40.67;21.67;;;2.20;99.90;;;;;;5107795;28;20038;-64
2022/12/04 10:06:11;;;;;;;43.63;23.08;;;2.30;99.90;;;;;;5100393;28;20042;-64
2022/12/04 10:08:43;;;;;;;44.60;22.60;;;2.30;99.90;;;;;;5097439;28;20192;-64
2022/12/04 10:11:19;;;;;;;46.58;24.42;;;2.30;99.90;;;;;;5093944;28;20028;-64
2022/12/04 10:14:23;;;;;;;42.38;22.20;;;2.30;99.90;;;;;;5094402;28;20039;-64
2022/12/04 10:17:03;;;;;;;42.63;22.30;;;2.30;99.90;;;;;;5093861;28;20157;-64
2022/12/04 10:19:41;;;;;;;37.17;20.05;;;2.30;99.90;;;;;;5075036;28;20044;-64
2022/12/04 10:22:20;;;;;;;39.78;21.67;;;2.30;99.90;;;;;;5098024;28;20032;-64
2022/12/04 10:24:55;;;;;;;40.65;20.38;;;2.30;99.90;;;;;;5104419;28;20023;-64
2022/12/04 10:27:33;;;;;;;32.70;17.48;;;2.30;99.90;;;;;;5108669;28;20024;-64
2022/12/04 10:30:21;;;;;;;33.38;18.15;;;2.30;99.90;;;;;;5109738;28;20020;-64
2022/12/04 10:32:50;;;;;;;37.58;20.23;;;2.40;99.90;;;;;;5107381;28;20542;-64
2022/12/04 10:35:24;;;;;;;38.22;20.35;;;2.40;99.90;;;;;;5112058;28;20026;-64
2022/12/04 10:37:56;;;;;;;33.90;18.50;;;2.40;99.90;;;;;;5109354;28;20012;-64
2022/12/04 10:40:42;;;;;;;31.73;18.23;;;2.40;99.90;;;;;;5109561;28;20473;-64
2022/12/04 10:43:35;;;;;;;36.80;19.88;;;2.40;99.90;;;;;;5107052;28;20081;-64
2022/12/04 10:46:00;;;;;;;32.60;17.75;;;2.40;99.90;;;;;;5106471;28;20034;-64
2022/12/04 10:48:36;;;;;;;32.72;17.98;;;2.30;99.90;;;;;;5110356;28;20023;-64
2022/12/04 10:51:01;;;;;;;32.22;18.50;;;2.40;99.90;;;;;;5103571;28;20035;-64
2022/12/04 10:53:35;;;;;;;31.50;17.67;;;2.40;99.90;;;;;;5110406;28;20019;-63
2022/12/04 10:56:12;;;;;;;29.00;16.13;;;2.40;99.90;;;;;;5109301;28;20072;-65
2022/12/04 10:58:38;;;;;;;27.25;16.30;;;2.40;99.90;;;;;;5109891;28;20110;-64
2022/12/04 11:01:07;;;;;;;34.92;19.05;;;2.50;99.90;;;;;;5107119;28;20110;-64
2022/12/04 11:03:33;;;;;;;34.08;18.60;;;2.50;99.90;;;;;;5108941;28;20431;-64
2022/12/04 11:06:05;;;;;;;32.83;18.75;;;2.50;99.90;;;;;;5108159;28;20019;-64
2022/12/04 11:08:43;;;;;;;29.15;16.00;;;2.40;99.90;;;;;;5108379;28;20027;-64
2022/12/04 11:11:14;;;;;;;33.67;17.50;;;2.50;99.90;;;;;;5108222;28;20098;-64
2022/12/04 11:13:40;;;;;;;32.17;17.13;;;2.50;99.90;;;;;;5107295;28;20515;-64
2022/12/04 11:16:07;;;;;;;30.05;16.85;;;2.50;99.90;;;;;;5108406;28;20461;-64
2022/12/04 11:18:44;;;;;;;31.00;16.92;;;2.50;99.90;;;;;;5110039;28;20089;-64
2022/12/04 11:21:21;;;;;;;29.23;16.63;;;2.50;99.90;;;;;;5128361;27;20118;-64
2022/12/04 11:23:49;;;;;;;32.10;17.60;;;2.50;99.90;;;;;;5109408;27;20063;-64
2022/12/04 11:26:28;;;;;;;26.00;15.70;;;2.50;99.90;;;;;;5111033;28;20015;-64
2022/12/04 11:28:54;;;;;;;26.20;16.27;;;2.50;99.90;;;;;;5075147;28;20073;-64
2022/12/04 11:31:21;;;;;;;30.30;17.00;;;2.60;99.90;;;;;;5097015;28;20051;-64
2022/12/04 11:33:51;;;;;;;31.83;17.80;;;2.60;99.90;;;;;;5103642;28;20108;-64
2022/12/04 11:36:29;;;;;;;27.80;16.73;;;2.60;99.90;;;;;;5092254;28;20489;-64
2022/12/04 11:39:15;;;;;;;29.83;17.73;;;2.50;99.90;;;;;;5092650;28;20044;-64
2022/12/04 11:41:40;;;;;;;26.65;15.40;;;2.50;99.90;;;;;;5073982;28;20416;-64
2022/12/04 11:44:21;;;;;;;29.08;16.67;;;2.50;99.90;;;;;;5092387;28;20073;-65
2022/12/04 11:46:52;;;;;;;29.70;17.48;;;2.50;99.90;;;;;;5092178;28;20085;-64
2022/12/04 11:49:22;;;;;;;26.90;16.38;;;2.60;99.90;;;;;;5093229;28;20103;-64
2022/12/04 11:52:07;;;;;;;28.98;15.90;;;2.50;99.90;;;;;;5074257;28;20027;-64
2022/12/04 11:54:42;;;;;;;28.83;15.90;;;2.50;99.90;;;;;;5091924;28;20020;-64
2022/12/04 11:57:14;;;;;;;30.77;17.20;;;2.50;99.90;;;;;;5095664;28;20028;-64
2022/12/04 12:00:19;;;;;;;25.83;14.95;;;2.50;99.90;;;;;;5104979;28;20028;-64
2022/12/04 12:03:14;;;;;;;26.60;15.32;;;2.60;99.90;;;;;;5105682;28;20519;-64
2022/12/04 12:06:06;;;;;;;28.40;15.80;;;2.60;99.90;;;;;;5095269;28;20462;-64
2022/12/04 12:08:46;;;;;;;27.38;16.17;;;2.70;99.90;;;;;;5096016;28;20039;-64
2022/12/04 12:11:35;;;;;;;28.27;16.00;;;2.60;99.90;;;;;;5096275;28;20027;-64
2022/12/04 12:14:13;;;;;;;30.08;16.10;;;2.70;99.90;;;;;;5096422;28;20021;-64
2022/12/04 12:17:07;;;;;;;28.08;16.25;;;2.60;99.90;;;;;;5096220;28;20031;-63
2022/12/04 12:20:20;;;;;;;25.98;16.10;;;2.60;99.90;;;;;;5095803;28;20024;-64
2022/12/04 12:23:06;;;;;;;28.48;15.98;;;2.60;99.90;;;;;;5071907;28;20036;-64
2022/12/04 12:25:42;;;;;;;26.88;16.90;;;2.60;99.90;;;;;;5077542;28;20481;-64
2022/12/04 12:28:29;;;;;;;31.92;16.83;;;2.60;99.90;;;;;;5078714;28;20473;-64
2022/12/04 12:31:31;;;;;;;28.83;17.35;;;2.70;99.90;;;;;;5096250;28;20047;-64
2022/12/04 12:34:07;;;;;;;27.88;14.70;;;2.60;99.90;;;;;;5107822;28;20061;-64
2022/12/04 12:36:42;;;;;;;25.77;15.85;;;2.70;99.90;;;;;;5109990;28;20022;-65
2022/12/04 12:39:54;;;;;;;25.38;15.23;;;2.70;99.90;;;;;;5111761;28;20026;-64
2022/12/04 12:42:29;;;;;;;25.75;15.13;;;2.70;99.90;;;;;;5086854;28;20054;-65
2022/12/04 12:45:17;;;;;;;26.00;15.45;;;2.70;99.90;;;;;;5110638;28;20373;-65
2022/12/04 12:47:46;;;;;;;26.38;15.82;;;2.70;99.90;;;;;;5110338;28;20476;-64
2022/12/04 12:50:18;;;;;;;25.87;15.43;;;2.70;99.90;;;;;;5111980;27;20023;-65
2022/12/04 12:53:01;;;;;;;23.92;14.13;;;2.70;99.90;;;;;;5107026;27;20272;-64
2022/12/04 12:55:38;;;;;;;25.88;14.50;;;2.70;99.90;;;;;;5088764;28;20393;-64
2022/12/04 12:58:20;;;;;;;24.40;14.13;;;2.80;99.90;;;;;;5106585;28;20016;-64
2022/12/04 13:01:01;;;;;;;28.40;16.10;;;2.80;99.90;;;;;;5110142;28;20023;-64
2022/12/04 13:03:44;;;;;;;23.40;13.43;;;2.80;99.90;;;;;;5093180;28;20016;-64
2022/12/04 13:06:17;;;;;;;23.52;14.25;;;2.90;99.90;;;;;;5079635;28;20020;-64
2022/12/04 13:09:04;;;;;;;23.30;14.10;;;2.90;99.90;;;;;;5109647;28;20024;-64
2022/12/04 13:11:31;;;;;;;22.40;14.10;;;2.90;99.90;;;;;;5088783;28;20103;-64
2022/12/04 13:14:01;;;;;;;23.05;14.27;;;2.90;99.90;;;;;;5110579;28;20092;-64